createdAt,value
2017-06-16T00:00:55.490Z,101086.05
2017-06-16T00:03:23.086Z,101091.39
2017-06-16T00:05:50.602Z,101084.34
2017-06-16T00:08:18.157Z,101077.33
2017-06-16T00:10:45.695Z,101084.25
2017-06-16T00:13:13.248Z,101082.16
2017-06-16T00:15:40.750Z,101084.37
2017-06-16T00:18:08.306Z,101093.34
2017-06-16T00:20:35.831Z,101088.98
2017-06-16T00:23:03.371Z,101081.95
2017-06-16T00:25:30.940Z,101091.70
2017-06-16T00:27:58.451Z,101093.73
2017-06-16T00:30:26.007Z,101100.27
2017-06-16T00:32:53.581Z,101099.97
2017-06-16T00:35:21.143Z,101103.15
2017-06-16T00:37:48.673Z,101104.09
2017-06-16T00:40:16.241Z,101112.36
2017-06-16T00:42:43.755Z,101110.98
2017-06-16T00:45:11.263Z,101113.36
2017-06-16T00:47:38.819Z,101116.05
2017-06-16T00:50:06.328Z,101115.77
2017-06-16T00:52:33.887Z,101111.80
2017-06-16T00:55:01.395Z,101114.90
2017-06-16T00:57:28.979Z,101118.87
2017-06-16T00:59:56.501Z,101121.00
2017-06-16T01:02:24.098Z,101122.38
2017-06-16T01:04:51.684Z,101126.72
2017-06-16T01:07:19.211Z,101127.66
2017-06-16T01:09:46.771Z,101132.42
2017-06-16T01:12:14.301Z,101140.41
2017-06-16T01:14:41.846Z,101141.38
2017-06-16T01:17:09.349Z,101131.45
2017-06-16T01:19:36.907Z,101132.92
2017-06-16T01:22:04.412Z,101150.04
2017-06-16T01:24:31.958Z,101150.39
2017-06-16T01:26:59.507Z,101149.50
2017-06-16T01:29:27.050Z,101152.47
2017-06-16T01:31:54.645Z,101150.59
2017-06-16T01:34:22.173Z,101150.81
2017-06-16T01:36:49.699Z,101153.27
2017-06-16T01:39:17.259Z,101160.13
2017-06-16T01:41:44.791Z,101158.33
2017-06-16T01:44:12.347Z,101164.38
2017-06-16T01:46:39.851Z,101169.44
2017-06-16T01:49:07.416Z,101173.97
2017-06-16T01:51:34.930Z,101172.64
2017-06-16T01:54:02.590Z,101173.67
2017-06-16T01:56:30.118Z,101179.29
2017-06-16T01:58:57.645Z,101174.41
2017-06-16T02:01:25.215Z,101168.27
2017-06-16T02:03:52.747Z,101172.87
2017-06-16T02:06:20.328Z,101174.77
2017-06-16T02:08:47.858Z,101176.59
2017-06-16T02:11:15.377Z,101167.00
2017-06-16T02:13:42.924Z,101178.22
2017-06-16T02:16:10.423Z,101175.28
2017-06-16T02:18:38.171Z,101175.52
2017-06-16T02:21:05.677Z,101179.47
2017-06-16T02:23:33.235Z,101174.31
2017-06-16T02:26:00.762Z,101175.44
2017-06-16T02:28:28.271Z,101171.87
2017-06-16T02:30:55.830Z,101178.57
2017-06-16T02:33:23.334Z,101181.69
2017-06-16T02:35:50.879Z,101178.68
2017-06-16T02:38:18.403Z,101178.72
2017-06-16T02:40:45.971Z,101176.20
2017-06-16T02:43:13.482Z,101174.77
2017-06-16T02:45:41.003Z,101181.80
2017-06-16T02:48:08.562Z,101177.93
2017-06-16T02:50:36.085Z,101184.25
2017-06-16T02:53:03.668Z,101184.02
2017-06-16T02:55:31.207Z,101190.73
2017-06-16T02:57:58.710Z,101189.92
2017-06-16T03:00:26.290Z,101198.91
2017-06-16T03:02:53.803Z,101196.83
2017-06-16T03:05:21.435Z,101196.53
2017-06-16T03:07:48.981Z,101201.17
2017-06-16T03:10:16.629Z,101208.23
2017-06-16T03:12:44.145Z,101210.13
2017-06-16T03:15:11.656Z,101213.00
2017-06-16T03:17:39.208Z,101214.91
2017-06-16T03:20:06.731Z,101209.30
2017-06-16T03:22:39.959Z,101219.16
2017-06-16T03:25:07.467Z,101224.08
2017-06-16T03:27:35.041Z,101217.89
2017-06-16T03:30:02.551Z,101216.47
2017-06-16T03:32:30.067Z,101215.42
2017-06-16T03:34:57.679Z,101222.84
2017-06-16T03:37:25.226Z,101238.76
2017-06-16T03:39:52.791Z,101237.20
2017-06-16T03:42:20.315Z,101244.00
2017-06-16T03:44:47.891Z,101240.65
2017-06-16T03:47:15.402Z,101246.30
2017-06-16T03:49:42.979Z,101243.33
2017-06-16T03:52:10.611Z,101248.27
2017-06-16T03:54:38.136Z,101239.68
2017-06-16T03:57:05.704Z,101244.03
2017-06-16T03:59:33.273Z,101251.66
2017-06-16T04:02:00.875Z,101256.71
2017-06-16T04:04:28.418Z,101259.84
2017-06-16T04:06:55.931Z,101272.98
2017-06-16T04:09:23.608Z,101273.67
2017-06-16T04:11:51.130Z,101272.84
2017-06-16T04:14:18.695Z,101270.00
2017-06-16T04:16:46.203Z,101271.17
2017-06-16T04:19:13.876Z,101269.67
2017-06-16T04:21:41.390Z,101278.72
2017-06-16T04:24:08.915Z,101280.48
2017-06-16T04:26:36.464Z,101290.89
2017-06-16T04:29:03.980Z,101280.19
2017-06-16T04:31:31.561Z,101281.82
2017-06-16T04:33:59.085Z,101285.70
2017-06-16T04:36:26.607Z,101281.34
2017-06-16T04:38:54.180Z,101288.73
2017-06-16T04:41:21.718Z,101285.76
2017-06-16T04:43:49.293Z,101291.94
2017-06-16T04:46:16.817Z,101292.75
2017-06-16T04:48:44.351Z,101293.95
2017-06-16T04:51:11.915Z,101304.20
2017-06-16T04:53:39.419Z,101306.73
2017-06-16T04:56:06.978Z,101315.00
2017-06-16T04:58:34.491Z,101308.22
2017-06-16T05:01:02.076Z,101317.55
2017-06-16T05:03:29.658Z,101315.64
2017-06-16T05:05:57.159Z,101328.08
2017-06-16T05:08:24.741Z,101322.19
2017-06-16T05:10:52.268Z,101322.48
2017-06-16T05:13:19.864Z,101326.32
2017-06-16T05:15:47.397Z,101325.83
2017-06-16T05:18:14.909Z,101327.44
2017-06-16T05:20:42.454Z,101323.67
2017-06-16T05:23:25.663Z,101326.92
2017-06-16T05:25:53.220Z,101320.69
2017-06-16T05:28:20.728Z,101322.70
2017-06-16T05:30:48.277Z,101317.64
2017-06-16T05:33:15.807Z,101329.30
2017-06-16T05:35:43.355Z,101332.99
2017-06-16T05:38:10.883Z,101330.53
2017-06-16T05:40:38.456Z,101327.44
2017-06-16T05:43:05.964Z,101338.03
2017-06-16T05:45:33.484Z,101336.17
2017-06-16T05:48:01.049Z,101336.22
2017-06-16T05:50:28.560Z,101336.11
2017-06-16T05:52:56.119Z,101347.41
2017-06-16T05:55:23.731Z,101349.27
2017-06-16T05:57:51.359Z,101349.48
2017-06-16T06:00:18.869Z,101352.41
2017-06-16T06:02:46.437Z,101359.23
2017-06-16T06:05:14.004Z,101357.94
2017-06-16T06:07:41.563Z,101368.70
2017-06-16T06:10:09.285Z,101366.62
2017-06-16T06:12:36.814Z,101364.23
2017-06-16T06:15:04.407Z,101373.83
2017-06-16T06:17:31.931Z,101367.78
2017-06-16T06:19:59.491Z,101367.84
2017-06-16T06:22:27.080Z,101378.27
2017-06-16T06:24:54.706Z,101372.67
2017-06-16T06:27:22.264Z,101376.40
2017-06-16T06:29:49.871Z,101375.58
2017-06-16T06:32:17.618Z,101377.17
2017-06-16T06:34:45.122Z,101383.30
2017-06-16T06:37:12.655Z,101384.86
2017-06-16T06:39:40.214Z,101388.22
2017-06-16T06:42:07.791Z,101393.02
2017-06-16T06:44:35.377Z,101395.32
2017-06-16T06:47:02.934Z,101401.09
2017-06-16T06:49:30.447Z,101400.80
2017-06-16T06:51:58.047Z,101400.77
2017-06-16T06:54:25.573Z,101406.59
2017-06-16T06:56:53.123Z,101403.49
2017-06-16T06:59:20.679Z,101405.56
2017-06-16T07:01:48.235Z,101409.28
2017-06-16T07:04:15.754Z,101414.59
2017-06-16T07:06:43.273Z,101419.42
2017-06-16T07:09:10.828Z,101413.98
2017-06-16T07:11:38.356Z,101409.71
2017-06-16T07:14:05.903Z,101423.54
2017-06-16T07:16:33.420Z,101423.27
2017-06-16T07:19:01.034Z,101417.09
2017-06-16T07:21:28.663Z,101426.48
2017-06-16T07:23:56.236Z,101429.16
2017-06-16T07:26:23.793Z,101431.08
2017-06-16T07:28:51.319Z,101430.75
2017-06-16T07:31:18.872Z,101431.72
2017-06-16T07:33:46.383Z,101424.11
2017-06-16T07:36:13.935Z,101427.13
2017-06-16T07:38:41.431Z,101417.92
2017-06-16T07:41:09.011Z,101417.44
2017-06-16T07:43:36.519Z,101425.27
2017-06-16T07:46:04.984Z,101426.89
2017-06-16T07:48:32.542Z,101419.95
2017-06-16T07:51:00.076Z,101431.59
2017-06-16T07:53:27.651Z,101428.41
2017-06-16T07:55:55.170Z,101439.98
2017-06-16T07:58:22.906Z,101426.78
2017-06-16T08:00:50.582Z,101427.19
2017-06-16T08:03:18.122Z,101430.32
2017-06-16T08:05:45.694Z,101426.55
2017-06-16T08:08:13.281Z,101429.69
2017-06-16T08:10:40.842Z,101427.56
2017-06-16T08:13:08.367Z,101428.73
2017-06-16T08:15:35.923Z,101427.27
2017-06-16T08:18:03.527Z,101416.98
2017-06-16T08:20:31.295Z,101429.69
2017-06-16T08:22:58.814Z,101432.04
2017-06-16T08:25:26.334Z,101440.00
2017-06-16T08:27:53.939Z,101435.30
2017-06-16T08:30:21.502Z,101443.57
2017-06-16T08:32:49.183Z,101445.07
2017-06-16T08:35:16.723Z,101443.57
2017-06-16T08:37:44.415Z,101445.88
2017-06-16T08:40:12.047Z,101451.22
2017-06-16T08:42:39.646Z,101454.05
2017-06-16T08:45:08.638Z,101460.23
2017-06-16T08:47:36.191Z,101454.41
2017-06-16T08:50:03.792Z,101459.42
2017-06-16T08:52:31.322Z,101460.44
2017-06-16T08:54:59.210Z,101463.34
2017-06-16T08:57:26.814Z,101460.05
2017-06-16T08:59:54.332Z,101459.66
2017-06-16T09:02:21.893Z,101472.67
2017-06-16T09:04:49.410Z,101471.39
2017-06-16T09:07:17.048Z,101477.25
2017-06-16T09:09:44.558Z,101484.45
2017-06-16T09:12:12.124Z,101492.80
2017-06-16T09:14:39.632Z,101491.77
2017-06-16T09:17:07.141Z,101492.77
2017-06-16T09:19:34.687Z,101505.40
2017-06-16T09:22:02.207Z,101509.92
2017-06-16T09:24:29.759Z,101507.48
2017-06-16T09:26:57.286Z,101508.56
2017-06-16T09:29:24.851Z,101515.87
2017-06-16T09:31:52.372Z,101512.66
2017-06-16T09:34:19.964Z,101524.23
2017-06-16T09:36:47.507Z,101526.95
2017-06-16T09:39:15.056Z,101528.69
2017-06-16T09:41:42.631Z,101539.55
2017-06-16T09:44:10.131Z,101537.17
2017-06-16T09:46:37.687Z,101539.31
2017-06-16T09:49:05.236Z,101534.33
2017-06-16T09:51:32.801Z,101534.47
2017-06-16T09:54:00.483Z,101537.80
2017-06-16T09:56:28.003Z,101530.12
2017-06-16T09:58:55.584Z,101535.28
2017-06-16T10:01:23.147Z,101533.20
2017-06-16T10:03:50.655Z,101546.42
2017-06-16T10:06:18.264Z,101544.09
2017-06-16T10:08:45.783Z,101547.11
2017-06-16T10:11:13.326Z,101545.08
2017-06-16T10:13:40.922Z,101545.66
2017-06-16T10:16:08.430Z,101546.00
2017-06-16T10:18:35.947Z,101545.82
2017-06-16T10:21:03.534Z,101550.79
2017-06-16T10:23:31.058Z,101557.64
2017-06-16T10:25:58.697Z,101559.48
2017-06-16T10:28:26.225Z,101561.06
2017-06-16T10:30:53.814Z,101563.32
2017-06-16T10:33:21.325Z,101566.04
2017-06-16T10:35:48.834Z,101568.97
2017-06-16T10:38:16.383Z,101575.11
2017-06-16T10:40:43.910Z,101583.48
2017-06-16T10:43:11.461Z,101583.22
2017-06-16T10:45:39.034Z,101593.80
2017-06-16T10:48:06.627Z,101582.15
2017-06-16T10:50:34.195Z,101584.59
2017-06-16T10:53:01.702Z,101588.90
2017-06-16T10:55:29.411Z,101581.13
2017-06-16T10:57:56.935Z,101587.47
2017-06-16T11:00:24.551Z,101592.59
2017-06-16T11:02:52.079Z,101600.31
2017-06-16T11:05:19.651Z,101599.68
2017-06-16T11:07:47.159Z,101598.87
2017-06-16T11:10:14.672Z,101599.77
2017-06-16T11:12:42.259Z,101603.92
2017-06-16T11:15:09.811Z,101616.26
2017-06-16T11:17:37.466Z,101605.83
2017-06-16T11:20:04.998Z,101601.30
2017-06-16T11:22:32.625Z,101602.20
2017-06-16T11:25:00.196Z,101603.88
2017-06-16T11:27:27.711Z,101607.95
2017-06-16T11:29:55.258Z,101613.56
2017-06-16T11:32:22.767Z,101612.20
2017-06-16T11:34:50.396Z,101613.24
2017-06-16T11:37:18.162Z,101624.07
2017-06-16T11:39:45.687Z,101625.55
2017-06-16T11:42:13.252Z,101623.77
2017-06-16T11:44:40.955Z,101627.72
2017-06-16T11:47:08.658Z,101623.70
2017-06-16T11:49:36.224Z,101635.72
2017-06-16T11:52:03.768Z,101623.98
2017-06-16T11:54:31.327Z,101620.97
2017-06-16T11:56:58.881Z,101630.44
2017-06-16T11:59:26.430Z,101630.07
2017-06-16T12:01:53.983Z,101636.07
2017-06-16T12:04:21.576Z,101629.26
2017-06-16T12:06:49.154Z,101632.73
2017-06-16T12:09:16.628Z,101630.70
2017-06-16T12:11:44.172Z,101630.28
2017-06-16T12:14:11.709Z,101622.45
2017-06-16T12:16:39.454Z,101630.74
2017-06-16T12:19:07.407Z,101628.70
2017-06-16T12:21:34.919Z,101636.78
2017-06-16T12:24:02.448Z,101638.03
2017-06-16T12:26:30.053Z,101644.16
2017-06-16T12:28:57.562Z,101634.81
2017-06-16T12:31:25.128Z,101631.34
2017-06-16T12:33:52.707Z,101639.46
2017-06-16T12:36:20.289Z,101635.80
2017-06-16T12:38:47.809Z,101632.80
2017-06-16T12:41:15.318Z,101655.69
2017-06-16T12:43:42.919Z,101640.53
2017-06-16T12:46:10.439Z,101649.02
2017-06-16T12:48:38.039Z,101649.19
2017-06-16T12:51:05.632Z,101658.35
2017-06-16T12:53:33.166Z,101639.94
2017-06-16T12:56:00.726Z,101639.72
2017-06-16T12:58:28.240Z,101639.42
2017-06-16T13:00:55.803Z,101645.46
2017-06-16T13:03:23.330Z,101648.27
2017-06-16T13:05:50.938Z,101646.69
2017-06-16T13:08:18.442Z,101644.42
2017-06-16T13:10:46.031Z,101647.34
2017-06-16T13:13:13.645Z,101652.97
2017-06-16T13:15:41.209Z,101656.67
2017-06-16T13:18:08.759Z,101642.94
2017-06-16T13:20:36.340Z,101645.34
2017-06-16T13:23:03.902Z,101650.91
2017-06-16T13:25:31.426Z,101664.61
2017-06-16T13:27:59.363Z,101659.58
2017-06-16T13:30:26.873Z,101657.67
2017-06-16T13:32:57.354Z,101661.45
2017-06-16T13:35:24.913Z,101663.59
2017-06-16T13:37:52.430Z,101667.45
2017-06-16T13:40:19.983Z,101658.88
2017-06-16T13:42:47.486Z,101675.03
2017-06-16T13:45:15.076Z,101659.84
2017-06-16T13:47:42.606Z,101665.08
2017-06-16T13:50:10.127Z,101659.33
2017-06-16T13:52:37.726Z,101667.23
2017-06-16T13:55:05.243Z,101676.66
2017-06-16T13:57:32.814Z,101681.53
2017-06-16T14:00:00.339Z,101679.48
2017-06-16T14:02:27.919Z,101675.34
2017-06-16T14:04:55.440Z,101677.28
2017-06-16T14:07:23.044Z,101678.73
2017-06-16T14:09:50.639Z,101676.48
2017-06-16T14:12:18.161Z,101678.01
2017-06-16T14:14:45.715Z,101688.88
2017-06-16T14:17:13.231Z,101677.12
2017-06-16T14:19:40.984Z,101682.41
2017-06-16T14:22:08.627Z,101681.82
2017-06-16T14:24:36.199Z,101676.57
2017-06-16T14:27:03.880Z,101686.95
2017-06-16T14:29:31.380Z,101697.68
2017-06-16T14:31:58.947Z,101700.02
2017-06-16T14:34:26.539Z,101686.41
2017-06-16T14:36:54.106Z,101687.70
2017-06-16T14:39:21.636Z,101703.08
2017-06-16T14:41:49.233Z,101704.11
2017-06-16T14:44:16.751Z,101698.97
2017-06-16T14:46:44.255Z,101700.98
2017-06-16T14:49:11.836Z,101726.16
2017-06-16T14:51:39.375Z,101709.78
2017-06-16T14:54:06.925Z,101712.80
2017-06-16T14:56:34.467Z,101716.35
2017-06-16T14:59:02.068Z,101712.22
2017-06-16T15:01:29.580Z,101720.20
2017-06-16T15:03:57.123Z,101725.75
2017-06-16T15:06:24.678Z,101724.25
2017-06-16T15:08:52.242Z,101726.66
2017-06-16T15:11:19.862Z,101725.08
2017-06-16T15:13:48.218Z,101723.19
2017-06-16T15:16:15.750Z,101724.52
2017-06-16T15:18:43.295Z,101730.70
2017-06-16T15:21:16.342Z,101729.33
2017-06-16T15:23:45.932Z,101731.94
2017-06-16T15:26:13.492Z,101725.13
2017-06-16T15:28:41.035Z,101733.31
2017-06-16T15:31:08.543Z,101732.70
2017-06-16T15:33:36.102Z,101725.55
2017-06-16T15:36:03.622Z,101733.83
2017-06-16T15:38:31.183Z,101727.30
2017-06-16T15:40:58.698Z,101731.91
2017-06-16T15:43:26.229Z,101733.08
2017-06-16T15:45:53.764Z,101730.29
2017-06-16T15:48:21.299Z,101731.05
2017-06-16T15:50:48.810Z,101733.91
2017-06-16T15:53:16.426Z,101740.96
2017-06-16T15:55:43.956Z,101745.06
2017-06-16T15:58:11.527Z,101743.51
2017-06-16T16:00:39.039Z,101755.27
2017-06-16T16:03:06.550Z,101764.24
2017-06-16T16:05:34.090Z,101762.17
2017-06-16T16:08:01.595Z,101755.39
2017-06-16T16:10:29.256Z,101761.59
2017-06-16T16:12:56.748Z,101773.27
2017-06-16T16:15:24.293Z,101768.35
2017-06-16T16:17:51.794Z,101771.85
2017-06-16T16:20:19.331Z,101776.51
2017-06-16T16:22:46.848Z,101781.20
2017-06-16T16:25:14.483Z,101786.64
2017-06-16T16:27:42.017Z,101781.95
2017-06-16T16:30:09.586Z,101794.23
2017-06-16T16:32:37.135Z,101789.74
2017-06-16T16:35:04.654Z,101786.69
2017-06-16T16:37:32.196Z,101782.07
2017-06-16T16:39:59.722Z,101795.27
2017-06-16T16:42:27.306Z,101790.73
2017-06-16T16:44:54.843Z,101800.41
2017-06-16T16:47:22.351Z,101801.53
2017-06-16T16:49:49.890Z,101807.02
2017-06-16T16:52:17.491Z,101801.38
2017-06-16T16:54:45.032Z,101801.38
2017-06-16T16:57:12.536Z,101798.45
2017-06-16T16:59:40.091Z,101808.25
2017-06-16T17:02:07.603Z,101814.23
2017-06-16T17:04:35.246Z,101816.68
2017-06-16T17:07:02.758Z,101819.19
2017-06-16T17:09:30.307Z,101820.08
2017-06-16T17:11:57.872Z,101817.88
2017-06-16T17:14:25.407Z,101813.01
2017-06-16T17:16:53.019Z,101813.98
2017-06-16T17:19:20.527Z,101808.11
2017-06-16T17:21:48.155Z,101813.23
2017-06-16T17:24:15.704Z,101819.95
2017-06-16T17:26:43.261Z,101829.09
2017-06-16T17:29:10.776Z,101828.20
2017-06-16T17:31:38.307Z,101832.77
2017-06-16T17:34:05.828Z,101833.16
2017-06-16T17:36:33.377Z,101842.41
2017-06-16T17:39:00.881Z,101834.92
2017-06-16T17:41:28.448Z,101844.09
2017-06-16T17:43:55.973Z,101847.25
2017-06-16T17:46:23.531Z,101847.16
2017-06-16T17:48:51.104Z,101850.55
2017-06-16T17:51:18.658Z,101854.52
2017-06-16T17:53:46.167Z,101854.34
2017-06-16T17:56:13.730Z,101846.97
2017-06-16T17:58:41.246Z,101848.39
2017-06-16T18:01:08.789Z,101861.24
2017-06-16T18:03:36.291Z,101857.73
2017-06-16T18:06:03.875Z,101859.26
2017-06-16T18:08:31.387Z,101856.52
2017-06-16T18:10:58.994Z,101863.92
2017-06-16T18:13:26.678Z,101858.56
2017-06-16T18:15:54.237Z,101858.97
2017-06-16T18:18:21.743Z,101861.66
2017-06-16T18:20:49.323Z,101867.75
2017-06-16T18:23:16.918Z,101862.12
2017-06-16T18:25:44.606Z,101867.79
2017-06-16T18:28:12.184Z,101867.99
2017-06-16T18:30:39.724Z,101870.87
2017-06-16T18:33:07.273Z,101867.87
2017-06-16T18:35:34.848Z,101876.36
2017-06-16T18:38:02.535Z,101872.19
2017-06-16T18:40:30.055Z,101866.08
2017-06-16T18:42:57.643Z,101871.56
2017-06-16T18:45:25.165Z,101877.26
2017-06-16T18:47:52.685Z,101876.70
2017-06-16T18:50:20.216Z,101883.80
2017-06-16T18:52:47.791Z,101893.80
2017-06-16T18:55:15.339Z,101893.98
2017-06-16T18:57:42.885Z,101906.75
2017-06-16T19:00:10.468Z,101909.75
2017-06-16T19:02:37.980Z,101908.34
2017-06-16T19:05:05.492Z,101912.03
2017-06-16T19:07:33.026Z,101911.55
2017-06-16T19:10:00.552Z,101918.70
2017-06-16T19:12:28.107Z,101919.80
2017-06-16T19:14:55.619Z,101916.73
2017-06-16T19:17:23.179Z,101917.87
2017-06-16T19:19:50.688Z,101925.16
2017-06-16T19:22:18.269Z,101931.54
2017-06-16T19:24:45.839Z,101925.17
2017-06-16T19:27:13.555Z,101921.98
2017-06-16T19:29:41.072Z,101925.99
2017-06-16T19:32:08.623Z,101927.97
2017-06-16T19:34:36.189Z,101934.74
2017-06-16T19:37:03.769Z,101935.43
2017-06-16T19:39:31.379Z,101935.11
2017-06-16T19:41:59.123Z,101931.95
2017-06-16T19:44:26.646Z,101940.22
2017-06-16T19:46:54.241Z,101940.91
2017-06-16T19:49:21.760Z,101945.36
2017-06-16T19:51:49.307Z,101937.02
2017-06-16T19:54:16.880Z,101941.11
2017-06-16T19:56:44.532Z,101950.26
2017-06-16T19:59:12.154Z,101945.98
2017-06-16T20:01:39.667Z,101948.19
2017-06-16T20:04:07.179Z,101950.36
2017-06-16T20:06:34.744Z,101950.05
2017-06-16T20:09:02.279Z,101957.03
2017-06-16T20:11:29.855Z,101962.25
2017-06-16T20:13:57.385Z,101967.69
2017-06-16T20:16:24.914Z,101970.17
2017-06-16T20:18:52.617Z,101970.81
2017-06-16T20:21:20.155Z,101971.97
2017-06-16T20:23:47.702Z,101972.56
2017-06-16T20:26:15.338Z,101976.31
2017-06-16T20:28:42.952Z,101975.77
2017-06-16T20:31:10.554Z,101985.70
2017-06-16T20:33:38.182Z,101983.09
2017-06-16T20:36:05.766Z,101993.14
2017-06-16T20:38:33.282Z,101991.22
2017-06-16T20:41:01.175Z,101993.84
2017-06-16T20:43:28.740Z,101997.30
2017-06-16T20:45:56.355Z,101991.64
2017-06-16T20:48:23.932Z,101999.95
2017-06-16T20:50:51.449Z,101992.78
2017-06-16T20:53:19.014Z,101996.69
2017-06-16T20:55:46.549Z,102000.48
2017-06-16T20:58:14.156Z,102000.62
2017-06-16T21:00:41.698Z,102008.93
2017-06-16T21:03:09.250Z,102005.11
2017-06-16T21:05:36.871Z,102006.08
2017-06-16T21:08:04.397Z,102002.16
2017-06-16T21:10:31.966Z,102007.58
2017-06-16T21:12:59.480Z,102007.95
2017-06-16T21:15:27.056Z,102011.23
2017-06-16T21:17:54.566Z,102013.14
2017-06-16T21:20:22.187Z,102015.33
2017-06-16T21:22:49.699Z,102019.52
2017-06-16T21:25:17.219Z,102017.37
2017-06-16T21:27:44.786Z,102019.94
2017-06-16T21:30:12.317Z,102017.92
2017-06-16T21:32:39.879Z,102017.75
2017-06-16T21:35:07.389Z,102010.98
2017-06-16T21:37:34.954Z,102014.93
2017-06-16T21:40:02.485Z,102011.41
2017-06-16T21:42:30.004Z,102014.66
2017-06-16T21:44:57.610Z,102010.20
2017-06-16T21:47:25.240Z,102020.09
2017-06-16T21:49:52.796Z,102024.53
2017-06-16T21:52:20.319Z,102025.75
2017-06-16T21:54:48.012Z,102018.19
2017-06-16T21:57:15.523Z,102015.20
2017-06-16T21:59:43.036Z,102016.22
2017-06-16T22:02:10.574Z,102014.13
2017-06-16T22:04:38.091Z,102015.86
2017-06-16T22:07:05.819Z,102018.95
2017-06-16T22:09:33.318Z,102025.06
2017-06-16T22:12:00.836Z,102016.20
2017-06-16T22:14:28.405Z,102021.78
2017-06-16T22:16:55.976Z,102027.73
2017-06-16T22:19:23.539Z,102030.42
2017-06-16T22:21:51.079Z,102030.41
2017-06-16T22:24:18.658Z,102035.14
2017-06-16T22:26:46.182Z,102030.16
2017-06-16T22:29:13.849Z,102030.03
2017-06-16T22:31:41.411Z,102027.44
2017-06-16T22:34:08.914Z,102030.41
2017-06-16T22:36:36.509Z,102029.08
2017-06-16T22:39:04.095Z,102024.21
2017-06-16T22:41:31.672Z,102029.51
2017-06-16T22:43:59.277Z,102021.59
2017-06-16T22:46:26.786Z,102031.52
2017-06-16T22:48:54.316Z,102030.14
2017-06-16T22:51:21.879Z,102036.59
2017-06-16T22:53:49.382Z,102030.91
2017-06-16T22:56:16.891Z,102023.20
2017-06-16T22:58:44.509Z,102030.48
2017-06-16T23:01:12.037Z,102025.48
2017-06-16T23:03:39.618Z,102026.33
2017-06-16T23:06:07.139Z,102029.64
2017-06-16T23:08:34.652Z,102028.84
2017-06-16T23:11:02.210Z,102028.44
2017-06-16T23:13:29.746Z,102028.12
2017-06-16T23:15:57.617Z,102027.06
2017-06-16T23:18:25.139Z,102035.11
2017-06-16T23:20:52.667Z,102036.45
2017-06-16T23:23:20.220Z,102030.22
2017-06-16T23:25:47.749Z,102031.22
2017-06-16T23:28:15.320Z,102027.87
2017-06-16T23:30:42.844Z,102026.20
2017-06-16T23:33:10.411Z,102020.23
2017-06-16T23:35:37.946Z,102021.95
2017-06-16T23:38:05.511Z,102023.82
2017-06-16T23:40:33.053Z,102023.72
2017-06-16T23:43:00.662Z,102027.39
2017-06-16T23:45:28.223Z,102024.53
2017-06-16T23:47:55.735Z,102028.31
2017-06-16T23:50:23.287Z,102022.62
2017-06-16T23:52:50.803Z,102026.45
2017-06-16T23:55:18.511Z,102020.81
2017-06-16T23:57:46.028Z,102020.59
